Time;durP1;ratioP1;P1;durP2;ratioP2;P2;SDS_P1;SDS_P2;PMS_P1;PMS_P2;Temp;Humidity;BMP_temperature;BMP_pressure;BME280_temperature;BME280_humidity;BME280_pressure;Samples;Min_cycle;Max_cycle;Signal;HPM_P1;HPM_P2
2022/12/13 00:00:39;;;;;;;3.10;1.90;;;;;;;;;;6253362;22;20016;-59
2022/12/13 00:03:07;;;;;;;3.47;1.85;;;;;;;;;;6244222;22;20016;-59
2022/12/13 00:05:33;;;;;;;3.30;2.23;;;;;;;;;;6255200;22;20072;-60
2022/12/13 00:08:00;;;;;;;3.53;1.92;;;;;;;;;;6252606;22;20020;-59
2022/12/13 00:10:27;;;;;;;3.63;1.42;;;;;;;;;;6256401;22;20026;-59
2022/12/13 00:12:53;;;;;;;4.57;1.77;;;;;;;;;;6252501;22;20042;-59
2022/12/13 00:15:20;;;;;;;3.80;1.73;;;;;;;;;;6255105;22;20012;-60
2022/12/13 00:17:48;;;;;;;5.07;1.43;;;;;;;;;;6249218;22;20442;-59
2022/12/13 00:20:14;;;;;;;3.03;1.38;;;;;;;;;;6256784;22;20016;-58
2022/12/13 00:22:40;;;;;;;7.80;1.05;;;;;;;;;;6249565;22;20027;-58
2022/12/13 00:25:07;;;;;;;4.35;1.85;;;;;;;;;;6254243;22;20041;-59
2022/12/13 00:27:34;;;;;;;4.15;1.20;;;;;;;;;;6255767;22;20105;-58
2022/12/13 00:30:00;;;;;;;7.43;2.00;;;;;;;;;;6239722;22;20073;-58
2022/12/13 00:32:29;;;;;;;3.17;1.17;;;;;;;;;;6254066;22;20453;-59
2022/12/13 00:34:57;;;;;;;2.85;1.13;;;;;;;;;;6251924;22;20015;-59
2022/12/13 00:37:23;;;;;;;3.78;2.47;;;;;;;;;;6248046;22;20016;-58
2022/12/13 00:39:50;;;;;;;3.00;1.25;;;;;;;;;;6251317;22;20069;-58
2022/12/13 00:42:16;;;;;;;2.97;1.33;;;;;;;;;;6245977;22;20019;-59
2022/12/13 00:44:43;;;;;;;2.75;0.73;;;;;;;;;;6256115;22;20077;-59
2022/12/13 00:47:09;;;;;;;6.00;1.70;;;;;;;;;;6248611;22;20027;-59
2022/12/13 00:49:36;;;;;;;2.40;1.38;;;;;;;;;;6258274;22;20020;-58
2022/12/13 00:52:04;;;;;;;2.20;1.05;;;;;;;;;;6244351;22;20022;-58
2022/12/13 00:54:30;;;;;;;3.47;2.30;;;;;;;;;;6255379;22;20015;-58
2022/12/13 00:56:57;;;;;;;3.13;1.27;;;;;;;;;;6246626;22;20385;-59
2022/12/13 00:59:23;;;;;;;3.13;1.42;;;;;;;;;;6259450;22;20646;-59
2022/12/13 01:01:50;;;;;;;3.20;1.75;;;;;;;;;;6246785;22;20012;-59
2022/12/13 01:04:16;;;;;;;3.25;0.75;;;;;;;;;;6252873;22;20340;-58
2022/12/13 01:06:43;;;;;;;2.07;0.97;;;;;;;;;;6249726;22;20020;-58
2022/12/13 01:09:14;;;;;;;3.33;1.05;;;;;;;;;;6256622;22;20042;-58
2022/12/13 01:11:41;;;;;;;4.55;1.80;;;;;;;;;;6249183;22;20008;-58
2022/12/13 01:14:07;;;;;;;2.65;1.17;;;;;;;;;;6254471;22;20103;-59
2022/12/13 01:16:34;;;;;;;5.38;1.85;;;;;;;;;;6245116;22;20012;-58
2022/12/13 01:19:00;;;;;;;2.03;0.87;;;;;;;;;;6252496;22;20026;-59
2022/12/13 01:21:27;;;;;;;5.47;2.08;;;;;;;;;;6249940;22;20081;-59
2022/12/13 01:23:56;;;;;;;3.28;1.35;;;;;;;;;;6252428;22;20089;-59
2022/12/13 01:26:23;;;;;;;2.00;1.45;;;;;;;;;;6240061;22;20607;-58
2022/12/13 01:28:50;;;;;;;2.70;1.10;;;;;;;;;;6251525;22;20073;-59
2022/12/13 01:31:18;;;;;;;3.83;1.17;;;;;;;;;;6247605;22;20011;-59
2022/12/13 01:33:44;;;;;;;3.92;2.05;;;;;;;;;;6254592;22;20027;-59
2022/12/13 01:36:13;;;;;;;2.92;1.10;;;;;;;;;;6248350;22;20423;-58
2022/12/13 01:38:39;;;;;;;3.95;1.45;;;;;;;;;;6256695;22;20012;-59
2022/12/13 01:41:06;;;;;;;5.85;1.95;;;;;;;;;;6247860;22;20090;-59
2022/12/13 01:43:48;;;;;;;5.10;1.70;;;;;;;;;;6253952;22;20026;-58
2022/12/13 01:46:17;;;;;;;7.63;2.13;;;;;;;;;;6251283;22;20016;-57
2022/12/13 01:48:46;;;;;;;2.13;1.15;;;;;;;;;;6252913;22;20020;-59
2022/12/13 01:51:15;;;;;;;4.68;2.10;;;;;;;;;;6253428;22;20644;-58
2022/12/13 01:53:43;;;;;;;6.18;2.20;;;;;;;;;;6243166;22;20592;-59
2022/12/13 01:56:11;;;;;;;1.30;0.40;;;;;;;;;;6253411;22;20015;-58
2022/12/13 01:58:39;;;;;;;3.15;1.75;;;;;;;;;;6255856;22;20451;-59
2022/12/13 02:01:05;;;;;;;9.20;1.38;;;;;;;;;;6253471;22;20062;-58
2022/12/13 02:03:33;;;;;;;2.40;0.98;;;;;;;;;;6245982;22;20020;-59
2022/12/13 02:06:01;;;;;;;9.23;1.52;;;;;;;;;;6255540;22;20016;-59
2022/12/13 02:08:28;;;;;;;3.37;2.50;;;;;;;;;;6246018;22;20081;-59
2022/12/13 02:10:55;;;;;;;7.05;1.60;;;;;;;;;;6254718;22;20016;-58
2022/12/13 02:13:22;;;;;;;2.58;1.27;;;;;;;;;;6247311;22;20016;-58
2022/12/13 02:15:53;;;;;;;4.20;2.72;;;;;;;;;;6250630;22;20463;-58
2022/12/13 02:18:29;;;;;;;2.70;1.02;;;;;;;;;;6226568;22;20019;-62
2022/12/13 02:21:06;;;;;;;2.13;1.07;;;;;;;;;;6247959;22;20397;-58
2022/12/13 02:23:57;;;;;;;2.17;1.08;;;;;;;;;;6254407;22;20020;-58
2022/12/13 02:26:55;;;;;;;2.10;1.08;;;;;;;;;;6238688;22;20012;-58
2022/12/13 02:29:34;;;;;;;4.18;1.65;;;;;;;;;;6130281;23;20483;-58
2022/12/13 02:32:05;;;;;;;6.05;2.15;;;;;;;;;;6226515;22;20617;-59
2022/12/13 02:34:35;;;;;;;2.47;0.87;;;;;;;;;;6223188;22;20024;-59
2022/12/13 02:37:07;;;;;;;7.45;2.22;;;;;;;;;;6215231;23;20020;-58
2022/12/13 02:39:36;;;;;;;3.90;2.00;;;;;;;;;;6214827;22;20424;-58
2022/12/13 02:42:04;;;;;;;4.13;2.17;;;;;;;;;;6221647;23;20015;-58
2022/12/13 02:44:34;;;;;;;4.93;1.83;;;;;;;;;;6219555;23;20020;-58
2022/12/13 02:47:05;;;;;;;2.30;1.30;;;;;;;;;;6216729;23;20020;-59
2022/12/13 02:49:34;;;;;;;3.25;1.30;;;;;;;;;;6219282;23;20012;-59
2022/12/13 02:52:01;;;;;;;4.57;1.45;;;;;;;;;;6220774;23;20012;-58
2022/12/13 02:54:27;;;;;;;4.68;2.10;;;;;;;;;;6215692;23;20078;-59
2022/12/13 02:56:54;;;;;;;3.70;1.42;;;;;;;;;;6220920;23;20443;-58
2022/12/13 02:59:22;;;;;;;3.00;1.20;;;;;;;;;;6207029;23;20023;-58
2022/12/13 03:01:52;;;;;;;3.38;2.17;;;;;;;;;;6222015;23;20016;-58
2022/12/13 03:04:26;;;;;;;8.05;1.52;;;;;;;;;;6222790;23;20020;-57
2022/12/13 03:06:56;;;;;;;4.20;2.28;;;;;;;;;;6219580;23;20020;-56
2022/12/13 03:09:27;;;;;;;3.45;1.85;;;;;;;;;;6224599;23;20016;-58
2022/12/13 03:14:54;;;;;;;6.03;2.28;;;;;;;;;;6221316;23;20105;-58
2022/12/13 03:17:25;;;;;;;5.50;1.20;;;;;;;;;;6226435;23;20062;-58
2022/12/13 03:19:53;;;;;;;4.43;1.35;;;;;;;;;;6225522;23;20436;-58
2022/12/13 03:22:20;;;;;;;3.95;2.13;;;;;;;;;;6220409;23;20469;-57
2022/12/13 03:24:47;;;;;;;4.27;1.83;;;;;;;;;;6221765;22;20027;-58
2022/12/13 03:27:13;;;;;;;2.40;1.20;;;;;;;;;;6221471;22;20062;-57
2022/12/13 03:29:40;;;;;;;3.55;1.70;;;;;;;;;;6225742;23;20012;-57
2022/12/13 03:32:06;;;;;;;8.57;1.88;;;;;;;;;;6218377;23;20066;-58
2022/12/13 03:34:33;;;;;;;1.92;0.93;;;;;;;;;;6224822;23;20021;-58
2022/12/13 03:37:01;;;;;;;3.93;1.60;;;;;;;;;;6233866;22;20081;-58
2022/12/13 03:39:28;;;;;;;4.53;1.52;;;;;;;;;;6226943;23;20525;-58
2022/12/13 03:41:54;;;;;;;2.00;0.55;;;;;;;;;;6214684;23;20273;-57
2022/12/13 03:44:21;;;;;;;3.85;1.95;;;;;;;;;;6225222;23;20094;-57
2022/12/13 03:46:47;;;;;;;7.95;2.38;;;;;;;;;;6224797;23;20300;-57
2022/12/13 03:49:14;;;;;;;2.83;1.73;;;;;;;;;;6221309;23;20355;-58
2022/12/13 03:51:40;;;;;;;2.80;1.08;;;;;;;;;;6224286;23;20463;-57
2022/12/13 03:54:08;;;;;;;4.10;1.55;;;;;;;;;;6220580;23;20390;-57
2022/12/13 03:56:36;;;;;;;2.67;1.27;;;;;;;;;;6221257;23;20059;-58
2022/12/13 03:59:02;;;;;;;4.07;1.98;;;;;;;;;;6225973;22;20070;-58
2022/12/13 04:01:32;;;;;;;4.13;2.43;;;;;;;;;;6220251;23;20023;-57
2022/12/13 04:03:58;;;;;;;5.47;1.70;;;;;;;;;;6225185;23;20016;-57
2022/12/13 04:06:25;;;;;;;4.25;1.20;;;;;;;;;;6220942;22;20710;-58
2022/12/13 04:08:52;;;;;;;2.85;1.45;;;;;;;;;;6221195;23;20035;-56
2022/12/13 04:14:04;;;;;;;2.27;1.27;;;;;;;;;;6215748;23;20721;-58
2022/12/13 04:16:31;;;;;;;3.72;1.67;;;;;;;;;;6225685;23;20020;-57
2022/12/13 04:18:57;;;;;;;2.10;0.70;;;;;;;;;;6218466;23;20078;-57
2022/12/13 04:21:24;;;;;;;3.72;1.40;;;;;;;;;;6219942;23;20039;-58
2022/12/13 04:23:50;;;;;;;6.30;2.03;;;;;;;;;;6220114;23;20042;-58
2022/12/13 04:26:16;;;;;;;5.33;1.70;;;;;;;;;;6224866;23;20135;-58
2022/12/13 04:28:45;;;;;;;4.45;1.20;;;;;;;;;;6216791;23;20093;-57
2022/12/13 04:31:11;;;;;;;2.42;1.25;;;;;;;;;;6226287;23;20016;-58
2022/12/13 04:33:38;;;;;;;1.88;0.98;;;;;;;;;;6220467;23;20016;-57
2022/12/13 04:36:04;;;;;;;7.55;1.48;;;;;;;;;;6231853;22;20012;-57
2022/12/13 04:38:31;;;;;;;2.10;0.63;;;;;;;;;;6238462;22;20618;-57
2022/12/13 04:41:04;;;;;;;3.10;0.95;;;;;;;;;;6253592;22;20027;-57
2022/12/13 04:43:30;;;;;;;3.42;1.40;;;;;;;;;;6253958;22;20015;-57
2022/12/13 04:45:58;;;;;;;4.72;0.80;;;;;;;;;;6225166;22;20020;-57
2022/12/13 04:48:25;;;;;;;3.25;1.38;;;;;;;;;;6253159;22;20443;-57
2022/12/13 04:50:51;;;;;;;6.07;2.73;;;;;;;;;;6256688;22;20448;-58
2022/12/13 04:53:18;;;;;;;1.80;0.98;;;;;;;;;;6243851;22;20470;-57
2022/12/13 04:55:44;;;;;;;5.03;1.70;;;;;;;;;;6255702;22;20012;-57
2022/12/13 04:58:11;;;;;;;3.53;1.85;;;;;;;;;;6255600;22;20371;-57
2022/12/13 05:00:39;;;;;;;3.10;1.48;;;;;;;;;;6254689;22;20011;-57
2022/12/13 05:03:07;;;;;;;5.30;1.80;;;;;;;;;;6249716;22;20169;-57
2022/12/13 05:05:34;;;;;;;5.05;1.40;;;;;;;;;;6254572;22;20019;-56
2022/12/13 05:08:00;;;;;;;5.10;2.50;;;;;;;;;;6254691;22;20030;-57
2022/12/13 05:10:27;;;;;;;3.88;1.95;;;;;;;;;;6250494;22;20022;-57
2022/12/13 05:12:53;;;;;;;4.63;1.63;;;;;;;;;;6244968;22;20015;-54
2022/12/13 05:15:20;;;;;;;3.27;1.37;;;;;;;;;;6221373;22;20015;-58
2022/12/13 05:17:47;;;;;;;4.30;1.30;;;;;;;;;;6254932;22;20012;-53
2022/12/13 05:20:15;;;;;;;4.88;1.83;;;;;;;;;;6250590;22;20125;-58
2022/12/13 05:22:41;;;;;;;3.10;1.60;;;;;;;;;;6226907;22;20020;-58
2022/12/13 05:25:08;;;;;;;6.72;2.60;;;;;;;;;;6248162;22;20019;-58
2022/12/13 05:27:35;;;;;;;2.97;0.77;;;;;;;;;;6229357;22;20011;-58
2022/12/13 05:30:01;;;;;;;3.88;1.55;;;;;;;;;;6245453;22;20016;-58
2022/12/13 05:32:28;;;;;;;2.78;1.48;;;;;;;;;;6256676;22;20026;-57
2022/12/13 05:34:54;;;;;;;4.30;1.63;;;;;;;;;;6252292;22;20061;-57
2022/12/13 05:37:22;;;;;;;4.25;1.50;;;;;;;;;;6255127;22;20272;-57
2022/12/13 05:39:48;;;;;;;2.93;1.00;;;;;;;;;;6248817;22;20022;-58
2022/12/13 05:42:15;;;;;;;3.92;1.73;;;;;;;;;;6254476;22;20012;-58
2022/12/13 05:44:41;;;;;;;3.80;1.80;;;;;;;;;;6220352;22;20394;-58
2022/12/13 05:47:08;;;;;;;3.50;1.45;;;;;;;;;;6253887;22;20023;-59
2022/12/13 05:49:34;;;;;;;2.53;1.33;;;;;;;;;;6253381;22;20020;-57
2022/12/13 05:52:01;;;;;;;3.93;1.17;;;;;;;;;;6254138;22;20502;-57
2022/12/13 05:54:29;;;;;;;3.33;1.27;;;;;;;;;;6252593;22;20069;-57
2022/12/13 05:56:56;;;;;;;3.17;2.30;;;;;;;;;;6250982;22;20634;-58
2022/12/13 05:59:23;;;;;;;2.53;1.65;;;;;;;;;;6255292;22;20099;-57
2022/12/13 06:01:49;;;;;;;4.53;1.58;;;;;;;;;;6254067;22;20040;-57
2022/12/13 06:04:16;;;;;;;6.47;1.80;;;;;;;;;;6252084;22;20015;-58
2022/12/13 06:06:43;;;;;;;4.00;1.38;;;;;;;;;;6251650;22;20016;-58
2022/12/13 06:09:09;;;;;;;1.83;0.50;;;;;;;;;;6250332;22;20089;-58
2022/12/13 06:11:37;;;;;;;7.10;2.83;;;;;;;;;;6254313;22;20038;-57
2022/12/13 06:14:03;;;;;;;5.13;1.60;;;;;;;;;;6251173;22;20012;-58
2022/12/13 06:16:30;;;;;;;3.63;1.60;;;;;;;;;;6253648;22;20051;-58
2022/12/13 06:18:56;;;;;;;3.33;1.65;;;;;;;;;;6249393;22;20049;-57
2022/12/13 06:21:23;;;;;;;4.60;1.33;;;;;;;;;;6255105;22;20015;-58
2022/12/13 06:23:49;;;;;;;4.25;2.10;;;;;;;;;;6246857;22;20011;-58
2022/12/13 06:26:16;;;;;;;3.60;1.85;;;;;;;;;;6253782;22;20434;-57
2022/12/13 06:28:46;;;;;;;6.57;2.33;;;;;;;;;;6243995;22;20024;-57
2022/12/13 06:31:13;;;;;;;2.38;0.82;;;;;;;;;;6250083;22;20019;-58
2022/12/13 06:33:39;;;;;;;7.18;1.48;;;;;;;;;;6254709;22;20023;-58
2022/12/13 06:36:06;;;;;;;2.05;1.42;;;;;;;;;;6249296;22;20425;-58
2022/12/13 06:38:33;;;;;;;3.75;0.93;;;;;;;;;;6256121;22;20035;-58
2022/12/13 06:41:06;;;;;;;10.13;3.33;;;;;;;;;;6249630;22;20016;-58
2022/12/13 06:43:33;;;;;;;4.47;1.90;;;;;;;;;;6253856;22;20520;-57
2022/12/13 06:46:02;;;;;;;10.73;1.48;;;;;;;;;;6252245;22;20099;-57
2022/12/13 06:48:28;;;;;;;5.13;1.20;;;;;;;;;;6255754;22;20030;-58
2022/12/13 06:50:55;;;;;;;2.08;1.15;;;;;;;;;;6248351;22;20012;-58
2022/12/13 06:53:23;;;;;;;4.50;1.33;;;;;;;;;;6252369;22;20034;-56
2022/12/13 06:55:50;;;;;;;2.15;1.67;;;;;;;;;;6252972;22;20446;-53
2022/12/13 06:58:16;;;;;;;4.40;1.73;;;;;;;;;;6247684;22;20027;-54
2022/12/13 07:00:43;;;;;;;2.00;0.93;;;;;;;;;;6251242;22;20015;-56
2022/12/13 07:03:11;;;;;;;4.80;1.77;;;;;;;;;;6251827;22;20012;-53
2022/12/13 07:05:38;;;;;;;5.03;1.07;;;;;;;;;;6225749;22;20031;-56
2022/12/13 07:08:05;;;;;;;2.28;1.15;;;;;;;;;;6224614;22;20015;-56
2022/12/13 07:10:31;;;;;;;8.85;1.77;;;;;;;;;;6249266;22;20070;-53
2022/12/13 07:12:58;;;;;;;2.60;1.40;;;;;;;;;;6223531;22;20024;-56
2022/12/13 07:15:24;;;;;;;5.45;1.60;;;;;;;;;;6249974;22;20015;-56
2022/12/13 07:17:51;;;;;;;2.30;1.03;;;;;;;;;;6254384;22;20016;-57
2022/12/13 07:20:21;;;;;;;5.13;2.03;;;;;;;;;;6248837;22;20023;-55
2022/12/13 07:22:52;;;;;;;2.28;1.17;;;;;;;;;;6250630;22;20016;-56
2022/12/13 07:25:21;;;;;;;3.45;1.65;;;;;;;;;;6219262;22;20085;-55
2022/12/13 07:27:47;;;;;;;3.83;2.00;;;;;;;;;;6253270;22;20435;-57
2022/12/13 07:30:14;;;;;;;5.47;0.93;;;;;;;;;;6248865;22;20077;-57
2022/12/13 07:32:40;;;;;;;9.38;1.95;;;;;;;;;;6252420;22;20020;-56
2022/12/13 07:35:07;;;;;;;3.10;1.80;;;;;;;;;;6222423;22;20016;-55
2022/12/13 07:37:36;;;;;;;3.35;1.63;;;;;;;;;;6247080;22;20046;-56
2022/12/13 07:40:02;;;;;;;2.05;0.95;;;;;;;;;;6250343;22;20648;-56
2022/12/13 07:42:29;;;;;;;2.40;0.90;;;;;;;;;;6248639;22;20039;-59
2022/12/13 07:44:55;;;;;;;4.28;1.58;;;;;;;;;;6245938;22;20027;-59
2022/12/13 07:47:22;;;;;;;5.72;2.83;;;;;;;;;;6249796;22;20019;-57
2022/12/13 07:49:48;;;;;;;4.20;2.50;;;;;;;;;;6250889;22;20019;-59
2022/12/13 07:52:15;;;;;;;4.97;1.25;;;;;;;;;;6252940;22;20022;-59
2022/12/13 07:54:43;;;;;;;1.70;0.73;;;;;;;;;;6251613;22;20015;-58
2022/12/13 07:57:09;;;;;;;2.85;1.70;;;;;;;;;;6225035;22;20015;-55
2022/12/13 07:59:36;;;;;;;1.77;0.55;;;;;;;;;;6230139;22;20031;-54
2022/12/13 08:02:06;;;;;;;5.57;1.35;;;;;;;;;;6227216;22;20501;-57
2022/12/13 08:04:33;;;;;;;3.88;1.85;;;;;;;;;;6253485;22;20037;-55
2022/12/13 08:06:59;;;;;;;2.67;1.27;;;;;;;;;;6251320;22;20461;-56
2022/12/13 08:09:28;;;;;;;2.05;1.23;;;;;;;;;;6256489;22;20016;-53
2022/12/13 08:11:56;;;;;;;3.00;0.95;;;;;;;;;;6249435;22;20057;-54
2022/12/13 08:14:22;;;;;;;4.28;0.77;;;;;;;;;;6225529;22;20571;-54
2022/12/13 08:16:49;;;;;;;3.97;1.20;;;;;;;;;;6220942;22;20016;-56
2022/12/13 08:19:15;;;;;;;3.43;0.97;;;;;;;;;;6252257;22;20008;-52
2022/12/13 08:21:42;;;;;;;4.28;2.25;;;;;;;;;;6251605;22;20022;-54
2022/12/13 08:24:09;;;;;;;6.30;1.67;;;;;;;;;;6255733;22;20019;-56
2022/12/13 08:26:35;;;;;;;2.38;1.02;;;;;;;;;;6252258;22;20015;-54
2022/12/13 08:29:04;;;;;;;1.60;0.82;;;;;;;;;;6227778;22;20020;-56
2022/12/13 08:31:30;;;;;;;2.67;0.73;;;;;;;;;;6254285;22;20077;-57
2022/12/13 08:33:57;;;;;;;4.88;2.88;;;;;;;;;;6254306;22;20057;-58
2022/12/13 08:36:24;;;;;;;2.72;0.95;;;;;;;;;;6242518;22;20020;-55
2022/12/13 08:38:51;;;;;;;3.67;1.23;;;;;;;;;;6252222;22;20015;-58
2022/12/13 08:41:18;;;;;;;3.47;1.17;;;;;;;;;;6249239;22;20074;-57
2022/12/13 08:43:45;;;;;;;2.23;1.10;;;;;;;;;;6252821;22;20027;-57
2022/12/13 08:46:13;;;;;;;5.18;1.33;;;;;;;;;;6249754;22;20030;-58
2022/12/13 08:48:40;;;;;;;2.80;1.38;;;;;;;;;;6251893;22;20015;-58
2022/12/13 08:51:07;;;;;;;3.22;1.45;;;;;;;;;;6246757;22;20015;-58
2022/12/13 08:53:34;;;;;;;3.20;0.63;;;;;;;;;;6254725;22;20085;-57
2022/12/13 08:56:01;;;;;;;4.67;1.90;;;;;;;;;;6239097;22;20272;-59
2022/12/13 08:58:28;;;;;;;3.70;1.85;;;;;;;;;;6253247;22;20015;-57
2022/12/13 09:00:54;;;;;;;4.13;0.95;;;;;;;;;;6244704;22;20019;-57
2022/12/13 09:03:22;;;;;;;4.65;1.73;;;;;;;;;;6252157;22;20134;-56
2022/12/13 09:05:49;;;;;;;2.60;1.23;;;;;;;;;;6248349;22;20028;-57
2022/12/13 09:08:16;;;;;;;3.10;1.10;;;;;;;;;;6250842;22;20062;-56
2022/12/13 09:10:42;;;;;;;2.97;1.60;;;;;;;;;;6226977;22;20046;-56
2022/12/13 09:13:09;;;;;;;6.07;1.05;;;;;;;;;;6238865;22;20020;-57
2022/12/13 09:15:38;;;;;;;2.75;1.50;;;;;;;;;;6241279;22;20016;-57
2022/12/13 09:18:05;;;;;;;3.90;1.88;;;;;;;;;;6246364;22;20031;-58
2022/12/13 09:20:34;;;;;;;2.97;1.23;;;;;;;;;;6240290;22;20019;-57
2022/12/13 09:23:02;;;;;;;1.42;0.32;;;;;;;;;;6243146;22;20019;-58
2022/12/13 09:25:31;;;;;;;5.43;1.42;;;;;;;;;;6243337;22;20090;-55
2022/12/13 09:27:58;;;;;;;6.13;1.05;;;;;;;;;;6237686;22;20015;-56
2022/12/13 09:30:24;;;;;;;2.75;1.02;;;;;;;;;;6242944;22;20011;-57
2022/12/13 09:32:51;;;;;;;3.27;1.43;;;;;;;;;;6210757;22;20450;-57
2022/12/13 09:35:17;;;;;;;5.95;1.70;;;;;;;;;;6244276;22;20458;-55
2022/12/13 09:37:46;;;;;;;6.05;1.67;;;;;;;;;;6241448;22;20019;-57
2022/12/13 09:40:18;;;;;;;3.88;0.95;;;;;;;;;;6244851;22;20065;-56
2022/12/13 09:42:48;;;;;;;3.42;1.83;;;;;;;;;;6212398;22;20566;-56
2022/12/13 09:45:15;;;;;;;5.93;1.23;;;;;;;;;;6244691;22;20052;-58
2022/12/13 09:47:43;;;;;;;2.40;0.90;;;;;;;;;;6247849;22;20027;-57
2022/12/13 09:50:12;;;;;;;2.78;1.33;;;;;;;;;;6242724;22;20055;-55
2022/12/13 09:52:40;;;;;;;3.88;1.92;;;;;;;;;;6242608;22;20474;-56
2022/12/13 09:55:17;;;;;;;3.97;1.65;;;;;;;;;;6245559;22;20015;-55
2022/12/13 09:57:44;;;;;;;3.83;1.20;;;;;;;;;;6239905;22;20016;-56
2022/12/13 10:00:13;;;;;;;3.15;1.38;;;;;;;;;;6245179;22;20626;-57
2022/12/13 10:02:43;;;;;;;2.05;0.50;;;;;;;;;;6240889;22;20395;-58
2022/12/13 10:05:15;;;;;;;1.60;0.43;;;;;;;;;;6244964;22;20019;-57
2022/12/13 10:07:41;;;;;;;2.67;1.13;;;;;;;;;;6240043;22;20015;-56
2022/12/13 10:10:12;;;;;;;3.03;1.97;;;;;;;;;;6244872;22;20016;-57
2022/12/13 10:12:42;;;;;;;2.90;1.15;;;;;;;;;;6244936;22;20050;-57
2022/12/13 10:15:10;;;;;;;2.90;1.98;;;;;;;;;;6239936;22;20016;-55
2022/12/13 10:17:38;;;;;;;2.42;0.90;;;;;;;;;;6242623;22;20015;-57
2022/12/13 10:20:05;;;;;;;1.52;0.52;;;;;;;;;;6238917;22;20241;-57
2022/12/13 10:22:32;;;;;;;4.03;1.73;;;;;;;;;;6219536;22;20031;-57
2022/12/13 10:25:02;;;;;;;2.15;1.15;;;;;;;;;;6237492;22;20022;-57
2022/12/13 10:27:29;;;;;;;1.58;0.60;;;;;;;;;;6218313;22;20089;-58
2022/12/13 10:30:01;;;;;;;1.27;0.43;;;;;;;;;;6241040;22;20054;-56
2022/12/13 10:32:29;;;;;;;3.47;1.35;;;;;;;;;;6245060;22;20015;-55
2022/12/13 10:34:57;;;;;;;1.27;0.47;;;;;;;;;;6209589;22;20044;-57
2022/12/13 10:37:28;;;;;;;3.95;1.13;;;;;;;;;;6236537;22;20020;-56
2022/12/13 10:39:54;;;;;;;6.95;1.98;;;;;;;;;;6240697;22;20303;-57
2022/12/13 10:42:21;;;;;;;4.80;2.25;;;;;;;;;;6240182;22;20020;-58
2022/12/13 10:44:48;;;;;;;3.47;1.35;;;;;;;;;;6242194;22;20015;-57
2022/12/13 10:47:17;;;;;;;3.60;1.20;;;;;;;;;;6246846;22;20546;-56
2022/12/13 10:49:49;;;;;;;3.63;1.40;;;;;;;;;;6240112;22;20020;-55
2022/12/13 10:52:21;;;;;;;2.15;0.52;;;;;;;;;;6245597;22;20012;-57
2022/12/13 10:54:48;;;;;;;1.80;0.60;;;;;;;;;;6240472;22;20019;-56
2022/12/13 10:57:15;;;;;;;2.45;1.17;;;;;;;;;;6246540;22;20020;-57
2022/12/13 10:59:42;;;;;;;2.13;0.90;;;;;;;;;;6238430;22;20577;-57
2022/12/13 11:02:27;;;;;;;1.45;0.30;;;;;;;;;;6244452;22;20020;-56
2022/12/13 11:04:54;;;;;;;3.22;1.20;;;;;;;;;;6216996;22;20015;-56
2022/12/13 11:07:22;;;;;;;2.83;1.42;;;;;;;;;;6244816;22;20111;-58
2022/12/13 11:09:49;;;;;;;5.32;0.73;;;;;;;;;;6238166;22;20015;-56
2022/12/13 11:12:18;;;;;;;4.30;1.07;;;;;;;;;;6211086;22;20038;-58
2022/12/13 11:14:49;;;;;;;2.22;0.85;;;;;;;;;;6244430;22;20018;-54
2022/12/13 11:17:16;;;;;;;4.15;1.98;;;;;;;;;;6240783;22;20026;-58
2022/12/13 11:19:48;;;;;;;2.58;1.65;;;;;;;;;;6246415;22;20081;-58
2022/12/13 11:22:19;;;;;;;3.40;1.23;;;;;;;;;;6243936;22;20012;-56
2022/12/13 11:24:49;;;;;;;2.77;1.23;;;;;;;;;;6244060;22;20027;-57
2022/12/13 11:27:30;;;;;;;3.63;1.50;;;;;;;;;;6247763;22;20405;-57
2022/12/13 11:30:04;;;;;;;1.45;0.98;;;;;;;;;;6237605;22;20020;-56
2022/12/13 11:32:40;;;;;;;2.33;0.30;;;;;;;;;;6246175;22;20069;-56
2022/12/13 11:35:14;;;;;;;3.72;0.75;;;;;;;;;;6215951;22;20024;-57
2022/12/13 11:37:45;;;;;;;2.17;1.00;;;;;;;;;;6214193;22;20106;-57
2022/12/13 11:40:14;;;;;;;2.28;1.02;;;;;;;;;;6246642;22;20066;-55
2022/12/13 11:42:43;;;;;;;2.15;1.23;;;;;;;;;;6237252;22;20026;-54
2022/12/13 11:45:12;;;;;;;2.72;1.08;;;;;;;;;;6246673;22;20118;-57
2022/12/13 11:47:42;;;;;;;3.50;1.73;;;;;;;;;;6243405;22;20023;-57
2022/12/13 11:50:15;;;;;;;3.80;1.60;;;;;;;;;;6242177;22;20389;-57
2022/12/13 11:52:45;;;;;;;2.97;1.67;;;;;;;;;;6247489;22;20015;-57
2022/12/13 11:55:15;;;;;;;1.35;0.40;;;;;;;;;;6218034;22;20038;-57
2022/12/13 11:57:44;;;;;;;5.75;1.77;;;;;;;;;;6245743;22;20016;-56
2022/12/13 12:00:21;;;;;;;2.10;0.52;;;;;;;;;;6243449;22;20019;-57
2022/12/13 12:02:54;;;;;;;2.30;0.83;;;;;;;;;;6242337;22;20562;-57
2022/12/13 12:05:27;;;;;;;2.60;1.08;;;;;;;;;;6248683;22;20556;-54
2022/12/13 12:07:56;;;;;;;4.97;1.90;;;;;;;;;;6244278;22;20055;-55
2022/12/13 12:10:27;;;;;;;4.60;1.08;;;;;;;;;;6241989;22;20070;-58
2022/12/13 12:12:57;;;;;;;1.42;0.65;;;;;;;;;;6247047;22;20241;-55
2022/12/13 12:15:25;;;;;;;3.90;1.37;;;;;;;;;;6236259;22;20020;-56
2022/12/13 12:17:51;;;;;;;1.70;0.40;;;;;;;;;;6218552;22;20582;-57
2022/12/13 12:20:21;;;;;;;3.97;1.00;;;;;;;;;;6243244;22;20016;-58
2022/12/13 12:22:53;;;;;;;4.13;0.95;;;;;;;;;;6247157;22;20023;-56
2022/12/13 12:25:24;;;;;;;3.38;1.60;;;;;;;;;;6204971;22;20024;-57
2022/12/13 12:27:53;;;;;;;3.87;2.17;;;;;;;;;;6247184;22;20027;-56
2022/12/13 12:30:20;;;;;;;2.05;1.10;;;;;;;;;;6240401;22;20434;-56
2022/12/13 12:32:50;;;;;;;1.90;0.68;;;;;;;;;;6243762;22;20012;-57
2022/12/13 12:35:26;;;;;;;2.55;0.45;;;;;;;;;;6241568;22;20012;-57
2022/12/13 12:37:58;;;;;;;1.60;0.55;;;;;;;;;;6179987;23;20028;-56
2022/12/13 12:40:43;;;;;;;2.47;0.47;;;;;;;;;;6184384;23;20368;-56
2022/12/13 12:43:13;;;;;;;14.63;1.85;;;;;;;;;;6178970;23;20063;-56
2022/12/13 12:45:47;;;;;;;3.35;1.02;;;;;;;;;;6173895;23;20436;-58
2022/12/13 12:48:24;;;;;;;2.13;0.70;;;;;;;;;;6177944;23;20424;-58
2022/12/13 12:50:53;;;;;;;1.77;0.70;;;;;;;;;;6180307;23;21046;-56
2022/12/13 12:53:35;;;;;;;2.33;0.77;;;;;;;;;;6177122;23;20021;-57
2022/12/13 12:56:14;;;;;;;4.85;0.50;;;;;;;;;;6172168;23;20107;-57
2022/12/13 12:58:45;;;;;;;3.13;0.85;;;;;;;;;;6184188;23;20048;-56
2022/12/13 13:01:17;;;;;;;2.17;0.85;;;;;;;;;;6180719;23;20020;-56
2022/12/13 13:03:45;;;;;;;2.72;0.80;;;;;;;;;;6180940;23;20021;-54
2022/12/13 13:06:13;;;;;;;2.07;0.87;;;;;;;;;;6177713;23;20422;-57
2022/12/13 13:08:44;;;;;;;2.60;0.90;;;;;;;;;;6176894;23;20036;-56
2022/12/13 13:11:11;;;;;;;3.45;0.75;;;;;;;;;;6182673;23;20403;-58
2022/12/13 13:13:45;;;;;;;4.00;1.40;;;;;;;;;;6178351;23;20020;-56
2022/12/13 13:16:27;;;;;;;4.53;1.05;;;;;;;;;;6178157;23;20021;-57
2022/12/13 13:18:54;;;;;;;2.13;0.53;;;;;;;;;;6174666;23;20144;-57
2022/12/13 13:21:32;;;;;;;1.85;0.47;;;;;;;;;;6181919;23;20017;-56
2022/12/13 13:24:13;;;;;;;1.67;0.55;;;;;;;;;;6184186;23;20067;-57
2022/12/13 13:26:41;;;;;;;2.40;0.73;;;;;;;;;;6173975;23;20357;-57
2022/12/13 13:29:21;;;;;;;2.88;0.93;;;;;;;;;;6179360;23;20017;-57
2022/12/13 13:31:58;;;;;;;4.20;2.87;;;;;;;;;;6175014;23;20025;-55
2022/12/13 13:34:25;;;;;;;2.50;1.10;;;;;;;;;;6177104;23;20020;-57
2022/12/13 13:36:52;;;;;;;5.50;2.47;;;;;;;;;;6221333;22;20023;-56
2022/12/13 13:39:36;;;;;;;4.22;1.02;;;;;;;;;;6241430;22;20015;-56
2022/12/13 13:42:09;;;;;;;1.08;0.45;;;;;;;;;;6238296;22;20027;-56
2022/12/13 13:44:54;;;;;;;6.00;1.27;;;;;;;;;;6232051;22;20027;-56
2022/12/13 13:47:35;;;;;;;3.80;1.10;;;;;;;;;;6237148;22;20019;-56
2022/12/13 13:50:09;;;;;;;4.78;2.05;;;;;;;;;;6234045;22;20050;-57
2022/12/13 13:52:45;;;;;;;3.60;1.05;;;;;;;;;;6209952;22;20339;-57
2022/12/13 13:55:24;;;;;;;2.88;1.30;;;;;;;;;;6242278;22;20898;-56
2022/12/13 13:58:07;;;;;;;2.23;1.17;;;;;;;;;;6243632;22;20097;-57
2022/12/13 14:00:46;;;;;;;2.95;0.95;;;;;;;;;;6245778;22;20020;-57
2022/12/13 14:03:30;;;;;;;1.35;0.52;;;;;;;;;;6217128;22;20949;-58
2022/12/13 14:06:17;;;;;;;3.10;1.60;;;;;;;;;;6242999;22;20015;-57
2022/12/13 14:08:50;;;;;;;3.30;0.65;;;;;;;;;;6243128;22;20016;-55
2022/12/13 14:11:37;;;;;;;3.93;1.43;;;;;;;;;;6245222;22;20019;-55
2022/12/13 14:14:22;;;;;;;2.75;1.80;;;;;;;;;;6239207;22;20019;-55
2022/12/13 14:17:08;;;;;;;3.67;1.77;;;;;;;;;;6242775;22;20486;-55
2022/12/13 14:19:52;;;;;;;3.17;1.17;;;;;;;;;;6219222;22;20353;-57
2022/12/13 14:22:27;;;;;;;4.57;0.90;;;;;;;;;;6242673;22;20035;-57
2022/12/13 14:24:59;;;;;;;2.50;1.33;;;;;;;;;;6242804;22;20111;-58
2022/12/13 14:27:37;;;;;;;4.43;1.77;;;;;;;;;;6235436;22;20103;-56
2022/12/13 14:30:04;;;;;;;2.63;0.80;;;;;;;;;;6212504;22;20655;-57
2022/12/13 14:32:34;;;;;;;6.63;1.33;;;;;;;;;;6245664;22;20022;-58
2022/12/13 14:35:00;;;;;;;4.32;1.63;;;;;;;;;;6213691;22;20019;-55
2022/12/13 14:37:29;;;;;;;5.13;1.10;;;;;;;;;;6245241;22;20461;-58
2022/12/13 14:39:57;;;;;;;4.18;1.65;;;;;;;;;;6241396;22;20020;-55
2022/12/13 14:42:28;;;;;;;3.22;1.48;;;;;;;;;;6246501;22;20022;-54
2022/12/13 14:45:12;;;;;;;2.55;0.90;;;;;;;;;;6208212;22;20497;-57
2022/12/13 14:47:40;;;;;;;4.90;1.75;;;;;;;;;;6247363;22;20024;-57
2022/12/13 14:50:07;;;;;;;2.27;1.33;;;;;;;;;;6236090;22;20065;-56
2022/12/13 14:52:37;;;;;;;5.20;1.13;;;;;;;;;;6217610;22;20042;-55
2022/12/13 14:55:04;;;;;;;5.40;1.27;;;;;;;;;;6235255;22;20019;-57
2022/12/13 14:57:32;;;;;;;4.53;0.85;;;;;;;;;;6244753;22;20327;-55
2022/12/13 15:00:01;;;;;;;3.10;1.25;;;;;;;;;;6232189;22;20107;-57